LEJR/XRY METAR and TAF weather

Enter ICAO airport designator
Station Type Date Time Source
LEJR METAR 2019/04/23 04:09 UTC NOAA

LEJR 230409Z 30016G26KT 270V330 6000 RA SCT006 BKN030 BKN048 12/11 Q1001


Station Type Date Time Source
LEJR Decoded METAR 2019/04/23 04:09 UTC NOAA

Jerez De La Fronteraaeropuerto, Spain (LEJR) 36-45N 006-04W 28M
Apr 23, 2019 - 12:09 AM EDT / 2019.04.23 0409 UTC
Wind: from the WNW (300 degrees) at 18 MPH (16 KT) gusting to 30 MPH (26 KT) (direction variable):0
Visibility: 3 mile(s):0
Sky conditions: mostly cloudy
Weather: rain
Temperature: 53 F (12 C)
Dew Point: 51 F (11 C)
Relative Humidity: 93%
Pressure (altimeter): 29.56 in. Hg (1001 hPa)
ob: LEJR 230409Z 30016G26KT 270V330 6000 RA SCT006 BKN030 BKN048 12/11 Q1001
cycle: 4

Station Type Date Time Source
LEJR TAF 2019/04/22 18:27 UTC NOAA

TAF LEJR 221700Z 2218/2318 23012KT 9999 SCT025 TX18/2315Z TN11/2307Z PROB40
TEMPO 2218/2220 23015G25KT
BECMG 2303/2305 29012KT
TEMPO 2302/2307 4000 RA BKN014

Example: see airport list